Accueil
METAR-TAF:

METAR-TAF

Aéroports :

Chambery / Aix-Les-Bains, France

Aéroport de Chambéry - Savoie

latitude: 45-39N, longitude: 005-53E, altitude: 235 m

Observation

Le bulletin a été fait il y a 26 minutes, à 10:30 UTC
Vent 4 kt de nord, variant entre nord/nord-ouest et sud-est
Température 9°C
Humidité 66%
Pression 1018 hPa
Visibilité 10 km ou plus
pas de nuages en-dessous de 1500 mètres et pas de cumulonimbus.

METAR: LFLB 221030Z AUTO 36004KT 330V130 CAVOK 09/03 Q1018 NOSIG

Heure: 11:56 (10:56 UTC)

Prévision

Le bulletin a été fait il y a 5 heures et 56 minutes, à 05:00 UTC
Prévision valable du 22 à 06 UTC au 23 à 06 UTC
Vent 5 kt de sud/sud-est
Visibilité 10 km ou plus
pas de nuages en-dessous de 1500 mètres et pas de cumulonimbus.
Probabilité 40% :
Temporairement
du 22 à 06 UTC au 22 à 09 UTC
Visibilité: 3000 m
brume

TAF: LFLB 220500Z 2206/2306 16005KT CAVOK PROB40 TEMPO 2206/2209 3000 BR

Observations et prévisions météorologiques de plus de 4000 aéroports (messages METAR et TAF).

Les stations disponibles sont représentées par des disques jaunes et rouges sur la carte.

Passer la souris dessus pour voir le nom de la station.

Cliquer dessus pour voir les observations et prévisions météorologiques.

Pour changer de carte: cliquez sur les boutons verts avec une croix noire pour zoomer, sur le bouton vert avec un tiret pour effectuer un zoom arrière, ou sur les flèches vertes pour les cartes adjacentes.


METAR-TAF: